Old Town, Florida
Current Conditions -  °F | °C
As of 1:53 PM on Friday 31 Oct 2014 (Local Time) from KGNV Reporting Station
Scattered Clouds Scattered Clouds  
Wind Chill: 72°   Ceiling: Unl
Heat Index: 72°   Visibility: 10mi
Dew Point: 53°   Wind: 7mph
Humidity: 51%   Direction: NA
Pressure: 29.85"   Gusts: 18mph
Location:  29.6°N, 82.98°W
Report Text: KGNV 311753Z VRB06G16KT 10SM SCT040 22/12 A2985 RMK AO2 SLP105 T02220117 10222 20128 58020
Loading
Personal Weather Stations






























Interactive Weather Map
Tropical Storm Tracking
New forecast layout! Learn more

10-Day Weather Forecast

Advertisements
Track Severe Weather on mobile